Wetterdaten: Woche 22.12.14 - 28.12.14 (KW52)
Datum Zeit Temp. A. Feuchte A. Luftdruck Regen Wind Richtung Taupunkt Windchill Windben
22.12.2014 00:00 6,9 C 60 % 1027,0 hPa 0,0 l/m 6,8 km/h N -0,3 C 6,3 C 22,5 km/h
22.12.2014 01:00 6,7 C 62 % 1026,5 hPa 0,0 l/m 3,8 km/h N 0,0 C 6,7 C 14,9 km/h
22.12.2014 02:00 6,7 C 63 % 1025,6 hPa 0,0 l/m 4,2 km/h N 0,0 C 6,7 C 18,9 km/h
22.12.2014 03:00 6,7 C 63 % 1024,8 hPa 0,0 l/m 7,9 km/h N 0,3 C 5,3 C 29,4 km/h
22.12.2014 04:00 6,8 C 64 % 1023,5 hPa 0,0 l/m 8,8 km/h N 0,5 C 5,0 C 26,1 km/h
22.12.2014 05:00 6,9 C 63 % 1022,7 hPa 0,0 l/m 9,8 km/h N 0,4 C 4,3 C 30,6 km/h
22.12.2014 06:00 7,2 C 63 % 1022,4 hPa 0,0 l/m 12,0 km/h N 0,6 C 3,4 C 33,8 km/h
22.12.2014 07:00 7,2 C 63 % 1021,9 hPa 0,0 l/m 15,3 km/h N 0,6 C 1,6 C 39,0 km/h
22.12.2014 08:00 6,8 C 65 % 1021,5 hPa 0,0 l/m 15,8 km/h N 0,7 C 1,0 C 42,6 km/h
22.12.2014 09:00 7,5 C 62 % 1021,2 hPa 0,0 l/m 16,6 km/h N 0,8 C 1,4 C 45,9 km/h
22.12.2014 10:00 8,8 C 57 % 1020,8 hPa 0,0 l/m 13,1 km/h N 0,8 C 4,6 C 34,6 km/h
22.12.2014 11:00 10,1 C 51 % 1020,3 hPa 0,0 l/m 13,1 km/h N 0,5 C 6,2 C 33,0 km/h
22.12.2014 12:00 9,9 C 54 % 1020,0 hPa 0,0 l/m 17,0 km/h N 1,0 C 4,2 C 37,8 km/h
22.12.2014 13:00 10,0 C 57 % 1019,5 hPa 0,0 l/m 13,9 km/h N 1,8 C 5,7 C 31,0 km/h
22.12.2014 14:00 10,8 C 54 % 1019,0 hPa 0,0 l/m 15,4 km/h N 1,9 C 6,0 C 37,0 km/h
22.12.2014 15:00 11,0 C 56 % 1019,0 hPa 0,0 l/m 14,9 km/h N 2,6 C 6,4 C 42,7 km/h
22.12.2014 16:00 11,2 C 56 % 1018,5 hPa 0,0 l/m 13,6 km/h N 2,8 C 7,2 C 43,9 km/h
22.12.2014 17:00 12,2 C 55 % 1018,2 hPa 0,0 l/m 13,3 km/h N 3,5 C 8,6 C 40,6 km/h
22.12.2014 18:00 12,4 C 55 % 1018,8 hPa 0,0 l/m 11,7 km/h N 3,5 C 9,5 C 33,0 km/h
22.12.2014 19:00 12,5 C 55 % 1018,6 hPa 0,0 l/m 8,1 km/h N 3,8 C 11,5 C 29,8 km/h
22.12.2014 20:00 13,2 C 51 % 1018,9 hPa 0,0 l/m 10,8 km/h N 3,1 C 10,8 C 29,0 km/h
22.12.2014 21:00 12,9 C 46 % 1019,4 hPa 0,0 l/m 15,9 km/h N 1,7 C 8,4 C 38,6 km/h
22.12.2014 22:00 12,2 C 51 % 1019,7 hPa 0,0 l/m 14,9 km/h N 2,2 C 7,8 C 39,0 km/h
22.12.2014 23:00 11,6 C 55 % 1019,9 hPa 0,0 l/m 12,2 km/h N 2,9 C 8,3 C 30,2 km/h
23.12.2014 00:00 11,1 C 58 % 1019,6 hPa 0,0 l/m 12,1 km/h N 3,2 C 7,7 C 31,8 km/h
23.12.2014 01:00 11,3 C 58 % 1019,2 hPa 0,0 l/m 7,5 km/h N 3,4 C 10,1 C 27,8 km/h
23.12.2014 02:00 11,4 C 57 % 1019,5 hPa 0,0 l/m 6,1 km/h N 3,2 C 10,9 C 26,1 km/h
23.12.2014 03:00 11,8 C 54 % 1019,3 hPa 0,0 l/m 8,7 km/h N 2,8 C 10,4 C 36,2 km/h
23.12.2014 04:00 11,9 C 55 % 1019,0 hPa 0,0 l/m 9,3 km/h N 3,0 C 10,1 C 26,5 km/h
23.12.2014 05:00 11,6 C 59 % 1019,1 hPa 0,0 l/m 7,3 km/h N 3,8 C 10,7 C 22,5 km/h
23.12.2014 06:00 11,3 C 58 % 1019,2 hPa 0,0 l/m 10,6 km/h N 3,4 C 8,8 C 33,4 km/h
23.12.2014 07:00 11,1 C 60 % 1019,7 hPa 0,0 l/m 10,2 km/h N 3,6 C 8,8 C 31,4 km/h
23.12.2014 08:00 10,9 C 62 % 1020,5 hPa 0,0 l/m 12,1 km/h N 3,8 C 7,5 C 37,0 km/h
23.12.2014 09:00 10,9 C 61 % 1020,8 hPa 0,0 l/m 13,6 km/h N 3,7 C 6,9 C 33,0 km/h
23.12.2014 10:00 11,0 C 59 % 1021,0 hPa 0,0 l/m 11,5 km/h N 3,2 C 7,9 C 31,0 km/h
23.12.2014 11:00 11,3 C 56 % 1020,7 hPa 0,0 l/m 13,7 km/h N 2,7 C 7,2 C 32,2 km/h
23.12.2014 12:00 12,1 C 48 % 1019,8 hPa 0,0 l/m 14,8 km/h N 1,3 C 7,8 C 36,6 km/h
23.12.2014 13:00 12,9 C 39 % 1019,2 hPa 0,0 l/m 14,6 km/h N -0,7 C 8,8 C 35,4 km/h
23.12.2014 14:00 13,1 C 39 % 1018,8 hPa 0,0 l/m 12,8 km/h N -0,5 C 9,8 C 33,0 km/h
23.12.2014 15:00 12,5 C 41 % 1019,2 hPa 0,0 l/m 9,4 km/h N -0,6 C 10,7 C 29,0 km/h
23.12.2014 16:00 11,7 C 43 % 1019,4 hPa 0,0 l/m 9,9 km/h N -0,4 C 9,6 C 26,2 km/h
23.12.2014 17:00 11,7 C 41 % 1019,6 hPa 0,0 l/m 12,4 km/h N -1,0 C 8,4 C 27,8 km/h
23.12.2014 18:00 11,5 C 43 % 1019,9 hPa 0,0 l/m 9,7 km/h N -0,7 C 9,4 C 24,1 km/h
23.12.2014 19:00 12,3 C 39 % 1019,7 hPa 0,0 l/m 11,4 km/h N -1,3 C 9,5 C 31,0 km/h
23.12.2014 20:00 12,0 C 39 % 1020,0 hPa 0,0 l/m 7,2 km/h N -1,7 C 11,2 C 20,9 km/h
23.12.2014 21:00 11,0 C 41 % 1020,5 hPa 0,0 l/m 4,7 km/h N -1,6 C 11,0 C 18,5 km/h
23.12.2014 22:00 10,3 C 44 % 1020,8 hPa 0,0 l/m 4,7 km/h N -1,5 C 10,3 C 20,1 km/h
23.12.2014 23:00 8,5 C 49 % 1020,8 hPa 0,0 l/m 1,7 km/h N -1,5 C 8,5 C 8,0 km/h
24.12.2014 00:00 6,3 C 56 % 1020,5 hPa 0,0 l/m 0,3 km/h N -2,0 C 6,3 C 2,8 km/h
24.12.2014 01:00 3,7 C 63 % 1020,3 hPa 0,0 l/m 0,1 km/h N -2,6 C 3,7 C 2,0 km/h
24.12.2014 02:00 1,5 C 71 % 1020,5 hPa 0,0 l/m 0,2 km/h N -3,2 C 1,5 C 3,2 km/h
24.12.2014 03:00 0,4 C 76 % 1020,4 hPa 0,0 l/m 0,2 km/h N -3,3 C 0,4 C 2,4 km/h
24.12.2014 04:00 -0,2 C 78 % 1020,3 hPa 0,0 l/m 0,0 km/h N -3,6 C -0,2 C 1,2 km/h
24.12.2014 05:00 -1,0 C 80 % 1020,3 hPa 0,0 l/m 0,0 km/h N -4,0 C -1,0 C 0,4 km/h
24.12.2014 06:00 -1,5 C 81 % 1020,2 hPa 0,0 l/m 0,0 km/h N -4,3 C -1,5 C 0,4 km/h
24.12.2014 07:00 -2,1 C 82 % 1020,0 hPa 0,0 l/m 0,0 km/h N -4,8 C -2,1 C 0,0 km/h
24.12.2014 08:00 -2,1 C 84 % 1020,0 hPa 0,0 l/m 0,0 km/h N -4,5 C -2,1 C 1,6 km/h
24.12.2014 09:00 0,6 C 84 % 1019,9 hPa 0,0 l/m 0,2 km/h N -1,9 C 0,6 C 3,2 km/h
24.12.2014 10:00 11,0 C 45 % 1019,2 hPa 0,0 l/m 7,9 km/h N -1,4 C 9,5 C 23,4 km/h
24.12.2014 11:00 13,8 C 33 % 1018,7 hPa 0,0 l/m 11,6 km/h N -2,2 C 11,1 C 33,4 km/h
24.12.2014 12:00 12,4 C 37 % 1018,3 hPa 0,0 l/m 18,8 km/h N -1,8 C 6,8 C 47,5 km/h
24.12.2014 13:00 10,7 C 47 % 1018,1 hPa 0,0 l/m 19,2 km/h N -0,3 C 4,5 C 52,7 km/h
24.12.2014 14:00 10,1 C 50 % 1018,0 hPa 0,0 l/m 20,0 km/h N 0,2 C 3,5 C 53,9 km/h
24.12.2014 15:00 9,9 C 51 % 1018,0 hPa 0,0 l/m 20,3 km/h N 0,2 C 3,1 C 50,3 km/h
24.12.2014 16:00 9,8 C 54 % 1018,4 hPa 0,0 l/m 17,1 km/h N 0,9 C 4,1 C 43,5 km/h
24.12.2014 17:00 9,7 C 54 % 1018,9 hPa 0,0 l/m 11,8 km/h N 0,8 C 6,3 C 33,8 km/h
24.12.2014 18:00 9,5 C 55 % 1019,0 hPa 0,0 l/m 13,1 km/h N 0,9 C 5,5 C 39,4 km/h
24.12.2014 19:00 9,8 C 55 % 1019,3 hPa 0,0 l/m 13,0 km/h N 1,2 C 5,8 C 37,0 km/h
24.12.2014 20:00 10,1 C 55 % 1019,6 hPa 0,0 l/m 8,9 km/h N 1,6 C 8,5 C 30,2 km/h
24.12.2014 21:00 10,3 C 55 % 1019,1 hPa 0,0 l/m 8,5 km/h N 1,6 C 8,8 C 26,2 km/h
24.12.2014 22:00 10,8 C 53 % 1018,6 hPa 0,0 l/m 11,8 km/h N 1,6 C 7,5 C 35,0 km/h
24.12.2014 23:00 10,3 C 54 % 1018,8 hPa 0,0 l/m 10,5 km/h N 1,4 C 7,6 C 31,0 km/h
25.12.2014 00:00 10,0 C 55 % 1018,8 hPa 0,0 l/m 11,1 km/h N 1,4 C 7,2 C 29,4 km/h
25.12.2014 01:00 11,0 C 53 % 1018,5 hPa 0,0 l/m 16,8 km/h N 1,7 C 5,8 C 42,7 km/h
25.12.2014 02:00 11,1 C 53 % 1018,4 hPa 0,0 l/m 16,3 km/h N 1,7 C 6,0 C 39,5 km/h
25.12.2014 03:00 10,4 C 59 % 1018,3 hPa 0,0 l/m 14,6 km/h N 2,6 C 5,8 C 39,4 km/h
25.12.2014 04:00 9,2 C 68 % 1018,8 hPa 0,0 l/m 12,0 km/h N 3,6 C 5,6 C 37,4 km/h
25.12.2014 05:00 8,8 C 70 % 1019,0 hPa 0,0 l/m 10,5 km/h N 3,7 C 6,1 C 29,3 km/h
25.12.2014 06:00 8,9 C 70 % 1019,3 hPa 0,0 l/m 10,3 km/h N 3,8 C 6,3 C 27,8 km/h
25.12.2014 07:00 9,0 C 71 % 1019,2 hPa 0,0 l/m 8,5 km/h N 4,1 C 7,5 C 29,0 km/h
25.12.2014 08:00 9,2 C 73 % 1019,1 hPa 0,0 l/m 9,0 km/h N 4,5 C 7,3 C 30,2 km/h
25.12.2014 09:00 9,4 C 70 % 1019,5 hPa 0,0 l/m 10,1 km/h N 4,3 C 7,1 C 27,8 km/h
25.12.2014 10:00 9,1 C 72 % 1020,3 hPa 0,0 l/m 11,1 km/h N 4,2 C 6,1 C 29,0 km/h
25.12.2014 11:00 5,8 C 83 % 1021,2 hPa 2,6 l/m 5,2 km/h N 3,1 C 5,8 C 17,3 km/h
25.12.2014 12:00 5,3 C 85 % 1021,1 hPa 1,0 l/m 2,0 km/h N 2,9 C 5,3 C 10,1 km/h
25.12.2014 13:00 5,2 C 85 % 1020,9 hPa 1,0 l/m 1,0 km/h N 2,9 C 5,2 C 4,4 km/h
25.12.2014 14:00 5,2 C 85 % 1021,2 hPa 0,0 l/m 0,2 km/h N 2,9 C 5,2 C 2,0 km/h
25.12.2014 15:00 5,4 C 83 % 1021,4 hPa 0,0 l/m 3,7 km/h N 2,7 C 5,4 C 12,9 km/h
25.12.2014 16:00 5,8 C 71 % 1021,3 hPa 0,0 l/m 9,7 km/h N 0,9 C 3,2 C 26,1 km/h
25.12.2014 17:00 5,7 C 67 % 1021,2 hPa 0,0 l/m 16,3 km/h N 0,1 C -0,6 C 33,8 km/h
25.12.2014 18:00 5,4 C 70 % 1021,5 hPa 0,0 l/m 18,8 km/h N 0,3 C -2,1 C 39,0 km/h
25.12.2014 19:00 5,3 C 68 % 1022,0 hPa 0,0 l/m 18,8 km/h N -0,1 C -2,2 C 42,7 km/h
25.12.2014 20:00 5,3 C 66 % 1022,8 hPa 0,0 l/m 13,7 km/h N -0,5 C 0,1 C 32,6 km/h
25.12.2014 21:00 5,2 C 65 % 1022,7 hPa 0,0 l/m 14,3 km/h N -0,8 C -0,3 C 33,4 km/h
25.12.2014 22:00 5,2 C 65 % 1022,1 hPa 0,0 l/m 20,8 km/h N -0,9 C -3,2 C 45,5 km/h
25.12.2014 23:00 5,3 C 62 % 1021,8 hPa 0,0 l/m 19,6 km/h N -1,3 C -2,6 C 48,3 km/h
26.12.2014 00:00 5,1 C 62 % 1021,6 hPa 0,0 l/m 15,3 km/h N -1,5 C -0,8 C 39,8 km/h
26.12.2014 01:00 5,3 C 60 % 1021,1 hPa 0,0 l/m 15,0 km/h N -1,9 C -0,6 C 39,0 km/h
26.12.2014 02:00 5,2 C 62 % 1021,2 hPa 0,0 l/m 13,1 km/h N -1,6 C 0,3 C 36,6 km/h
26.12.2014 03:00 5,0 C 64 % 1020,8 hPa 0,0 l/m 14,9 km/h N -1,2 C -0,9 C 39,4 km/h
26.12.2014 04:00 4,8 C 68 % 1021,1 hPa 0,0 l/m 11,3 km/h N -0,7 C 1,0 C 32,2 km/h
26.12.2014 05:00 2,8 C 79 % 1021,7 hPa 0,8 l/m 12,9 km/h N -0,6 C -2,3 C 33,4 km/h
26.12.2014 06:00 3,1 C 75 % 1022,2 hPa 0,0 l/m 10,0 km/h N -0,9 C 0,0 C 27,0 km/h
26.12.2014 07:00 3,3 C 73 % 1022,4 hPa 0,0 l/m 12,6 km/h N -1,1 C -1,5 C 32,2 km/h
26.12.2014 08:00 3,2 C 71 % 1023,2 hPa 0,3 l/m 12,8 km/h N -1,5 C -1,8 C 37,4 km/h
26.12.2014 09:00 3,2 C 64 % 1024,0 hPa 0,0 l/m 13,9 km/h N -3,0 C -2,4 C 34,6 km/h
26.12.2014 10:00 3,3 C 62 % 1024,6 hPa 0,0 l/m 12,1 km/h N -3,3 C -1,2 C 35,8 km/h
26.12.2014 11:00 3,0 C 61 % 1024,9 hPa 0,0 l/m 9,7 km/h N -3,7 C 0,2 C 30,6 km/h
26.12.2014 12:00 3,6 C 57 % 1024,5 hPa 0,0 l/m 10,9 km/h N -4,2 C -0,1 C 31,8 km/h
26.12.2014 13:00 4,0 C 54 % 1024,2 hPa 0,0 l/m 11,9 km/h N -4,6 C -0,3 C 35,0 km/h
26.12.2014 14:00 3,4 C 57 % 1024,1 hPa 0,0 l/m 7,4 km/h N -4,3 C 2,4 C 23,7 km/h
26.12.2014 15:00 2,9 C 63 % 1024,2 hPa 0,0 l/m 4,8 km/h N -3,6 C 2,5 C 18,5 km/h
26.12.2014 16:00 2,3 C 67 % 1024,4 hPa 0,0 l/m 2,0 km/h N -3,3 C 2,3 C 9,3 km/h
26.12.2014 17:00 2,2 C 70 % 1024,7 hPa 0,0 l/m 3,0 km/h N -2,7 C 2,2 C 10,4 km/h
26.12.2014 18:00 1,4 C 79 % 1024,6 hPa 0,0 l/m 4,4 km/h N -1,8 C 1,4 C 12,5 km/h
26.12.2014 19:00 0,7 C 83 % 1024,8 hPa 0,0 l/m 3,9 km/h N -1,9 C 0,7 C 12,9 km/h
26.12.2014 20:00 0,6 C 82 % 1024,6 hPa 0,0 l/m 3,2 km/h N -2,1 C 0,6 C 12,5 km/h
26.12.2014 21:00 0,8 C 82 % 1024,2 hPa 0,0 l/m 3,4 km/h N -1,9 C 0,8 C 12,5 km/h
26.12.2014 22:00 0,4 C 81 % 1024,0 hPa 0,0 l/m 4,2 km/h N -2,5 C 0,4 C 12,9 km/h
26.12.2014 23:00 0,2 C 80 % 1023,6 hPa 0,0 l/m 2,8 km/h N -2,9 C 0,2 C 9,7 km/h
27.12.2014 00:00 -0,1 C 80 % 1023,2 hPa 0,0 l/m 2,8 km/h N -3,1 C -0,1 C 8,9 km/h
27.12.2014 01:00 -0,6 C 81 % 1022,6 hPa 0,0 l/m 3,8 km/h N -3,6 C -0,6 C 11,3 km/h
27.12.2014 02:00 -0,8 C 71 % 1022,0 hPa 0,0 l/m 4,9 km/h N -5,5 C -0,8 C 15,3 km/h
27.12.2014 03:00 -1,3 C 69 % 1021,7 hPa 0,0 l/m 2,6 km/h N -6,4 C -1,3 C 10,5 km/h
27.12.2014 04:00 -1,9 C 70 % 1021,2 hPa 0,0 l/m 2,5 km/h N -6,6 C -1,9 C 12,5 km/h
27.12.2014 05:00 -2,1 C 72 % 1020,7 hPa 0,0 l/m 2,8 km/h N -6,5 C -2,1 C 8,0 km/h
27.12.2014 06:00 -2,1 C 73 % 1020,0 hPa 0,0 l/m 3,8 km/h N -6,3 C -2,1 C 8,9 km/h
27.12.2014 07:00 -2,7 C 73 % 1018,9 hPa 0,0 l/m 0,2 km/h N -6,8 C -2,7 C 2,0 km/h
27.12.2014 08:00 -3,8 C 76 % 1018,0 hPa 0,0 l/m 0,0 km/h N -7,5 C -3,8 C 0,4 km/h
27.12.2014 09:00 -2,9 C 79 % 1017,0 hPa 0,0 l/m 0,9 km/h N -6,1 C -2,9 C 5,6 km/h
27.12.2014 10:00 -1,3 C 73 % 1015,5 hPa 0,0 l/m 2,2 km/h N -5,5 C -1,3 C 8,1 km/h
27.12.2014 11:00 -1,3 C 72 % 1013,7 hPa 0,0 l/m 2,3 km/h N -5,6 C -1,3 C 8,9 km/h
27.12.2014 12:00 -1,7 C 75 % 1011,7 hPa 0,0 l/m 4,8 km/h N -5,5 C -1,7 C 14,1 km/h
27.12.2014 13:00 -1,3 C 76 % 1009,8 hPa 0,0 l/m 3,7 km/h N -5,0 C -1,3 C 16,5 km/h
27.12.2014 14:00 -1,4 C 79 % 1008,7 hPa 0,0 l/m 3,3 km/h N -4,7 C -1,4 C 14,5 km/h
27.12.2014 15:00 -1,4 C 81 % 1007,7 hPa 0,0 l/m 3,9 km/h N -4,3 C -1,4 C 14,9 km/h
27.12.2014 16:00 -1,3 C 82 % 1006,6 hPa 0,0 l/m 3,2 km/h N -4,0 C -1,3 C 17,3 km/h
27.12.2014 17:00 -1,2 C 82 % 1005,8 hPa 0,0 l/m 2,5 km/h N -3,9 C -1,2 C 12,5 km/h
27.12.2014 18:00 -0,9 C 83 % 1005,3 hPa 0,0 l/m 3,1 km/h N -3,4 C -0,9 C 15,3 km/h
27.12.2014 19:00 -0,9 C 84 % 1005,0 hPa 0,0 l/m 1,8 km/h N -3,2 C -0,9 C 9,3 km/h
27.12.2014 20:00 -0,8 C 85 % 1004,7 hPa 0,0 l/m 2,8 km/h N -3,0 C -0,8 C 10,5 km/h
27.12.2014 21:00 -0,8 C 85 % 1004,8 hPa 0,0 l/m 4,4 km/h N -3,0 C -0,8 C 14,1 km/h
27.12.2014 22:00 -0,9 C 85 % 1004,9 hPa 0,0 l/m 1,5 km/h N -3,0 C -0,9 C 7,2 km/h
27.12.2014 23:00 -0,8 C 86 % 1004,5 hPa 0,0 l/m 0,8 km/h N -2,9 C -0,8 C 6,0 km/h
28.12.2014 00:00 -0,8 C 86 % 1004,5 hPa 0,0 l/m 0,3 km/h N -2,8 C -0,8 C 5,6 km/h
28.12.2014 01:00 -0,8 C 86 % 1004,7 hPa 0,0 l/m 0,1 km/h N -2,9 C -0,8 C 4,0 km/h
28.12.2014 02:00 -1,0 C 85 % 1004,9 hPa 0,0 l/m 0,0 km/h N -3,2 C -1,0 C 1,6 km/h
28.12.2014 03:00 -0,9 C 85 % 1004,8 hPa 0,0 l/m 0,4 km/h N -3,1 C -0,9 C 5,6 km/h
28.12.2014 04:00 -1,1 C 85 % 1005,7 hPa 0,0 l/m 0,2 km/h N -3,3 C -1,1 C 4,0 km/h
28.12.2014 05:00 -1,6 C 85 % 1006,7 hPa 0,0 l/m 0,5 km/h N -3,8 C -1,6 C 7,3 km/h
28.12.2014 06:00 -1,9 C 85 % 1007,9 hPa 0,0 l/m 0,2 km/h N -4,1 C -1,9 C 4,4 km/h
28.12.2014 07:00 -2,2 C 85 % 1009,0 hPa 0,0 l/m 0,2 km/h N -4,4 C -2,2 C 4,0 km/h
28.12.2014 08:00 -2,5 C 85 % 1010,4 hPa 0,0 l/m 0,9 km/h N -4,7 C -2,5 C 6,8 km/h
28.12.2014 09:00 -2,8 C 85 % 1011,4 hPa 0,0 l/m 0,8 km/h N -5,0 C -2,8 C 6,8 km/h
28.12.2014 10:00 -2,7 C 85 % 1012,5 hPa 0,0 l/m 1,4 km/h N -4,8 C -2,7 C 10,5 km/h
28.12.2014 11:00 -2,3 C 85 % 1012,8 hPa 0,0 l/m 1,0 km/h N -4,5 C -2,3 C 7,2 km/h
28.12.2014 12:00 -2,9 C 86 % 1013,3 hPa 0,0 l/m 4,1 km/h N -4,9 C -2,9 C 11,7 km/h
28.12.2014 13:00 -3,7 C 86 % 1014,1 hPa 0,0 l/m 5,2 km/h N -5,7 C -3,7 C 14,9 km/h
28.12.2014 14:00 -4,1 C 86 % 1015,1 hPa 0,0 l/m 5,8 km/h N -6,1 C -4,2 C 17,7 km/h
28.12.2014 15:00 -4,6 C 85 % 1016,6 hPa 0,0 l/m 6,8 km/h N -6,7 C -5,4 C 21,7 km/h
28.12.2014 16:00 -4,9 C 80 % 1018,4 hPa 0,0 l/m 6,2 km/h N -7,8 C -5,4 C 22,5 km/h
28.12.2014 17:00 -5,1 C 79 % 1019,5 hPa 0,0 l/m 6,0 km/h N -8,3 C -5,3 C 19,7 km/h
28.12.2014 18:00 -5,2 C 76 % 1020,4 hPa 0,0 l/m 8,4 km/h N -8,8 C -7,5 C 24,5 km/h
28.12.2014 19:00 -5,1 C 74 % 1021,2 hPa 0,0 l/m 9,0 km/h N -9,0 C -8,0 C 27,8 km/h
28.12.2014 20:00 -5,1 C 71 % 1022,2 hPa 0,0 l/m 10,1 km/h N -9,5 C -9,1 C 29,0 km/h
28.12.2014 21:00 -5,3 C 67 % 1023,3 hPa 0,0 l/m 11,3 km/h N -10,5 C -10,5 C 32,2 km/h
28.12.2014 22:00 -5,4 C 69 % 1024,0 hPa 0,0 l/m 9,2 km/h N -10,3 C -8,6 C 25,0 km/h
28.12.2014 23:00 -5,8 C 72 % 1025,0 hPa 0,0 l/m 15,8 km/h N -10,0 C -14,5 C 35,8 km/h
Min-Datum _ 28.12.14 24.12.14 28.12.14 - 24.12.14 - 28.12.14 28.12.14 24.12.14
_ Min-Zeit 23:30 10:45 03:00 - 00:15 - 21:30 23:30 01:30
Minimum _ -5,9 C 32 % 1004,2 hPa - 0,0 km/h - -10,7 C -15,5 C 0,0 km/h
Max-Datum _ 24.12.14 27.12.14 22.12.14 25.12.14 24.12.14 - 25.12.14 22.12.14 24.12.14
_ Max-Zeit 10:45 23:15 00:45 11:30 12:45 - 08:15 19:45 12:45
Maximum _ 14,4 C 86 % 1027,1 hPa 2,6 l/m 25,9 km/h
N
- 4,6 C 12,3 C 59,5 km/h
N
Durchschnitt _ 4,7 C 67 % 1018,7 hPa #5,7 l/m 8,2 km/h N -1,4 C 2,5 C 23,6 km/h